sensor_id;sensor_type;location;lat;lon;timestamp;pressure;altitude;pressure_sealevel;temperature;humidity
51239;BME280;38154;47.548;18.828;2023-06-04T00:00:50;98997.72;;;15.19;41.92
51239;BME280;38154;47.548;18.828;2023-06-04T00:03:16;98992.47;;;15.19;41.83
51239;BME280;38154;47.548;18.828;2023-06-04T00:05:41;99001.19;;;15.21;41.76
51239;BME280;38154;47.548;18.828;2023-06-04T00:08:07;99006.50;;;15.20;42.09
51239;BME280;38154;47.548;18.828;2023-06-04T00:10:33;99002.22;;;15.11;42.31
51239;BME280;38154;47.548;18.828;2023-06-04T00:13:00;99006.75;;;15.01;42.45
51239;BME280;38154;47.548;18.828;2023-06-04T00:15:26;99009.44;;;14.95;42.68
51239;BME280;38154;47.548;18.828;2023-06-04T00:17:52;99003.34;;;14.92;42.72
51239;BME280;38154;47.548;18.828;2023-06-04T00:20:18;99012.09;;;14.91;42.94
51239;BME280;38154;47.548;18.828;2023-06-04T00:22:44;99000.75;;;14.89;43.41
51239;BME280;38154;47.548;18.828;2023-06-04T00:25:10;99006.91;;;14.86;43.57
51239;BME280;38154;47.548;18.828;2023-06-04T00:27:36;98997.31;;;14.83;43.60
51239;BME280;38154;47.548;18.828;2023-06-04T00:30:03;98997.31;;;14.83;43.50
51239;BME280;38154;47.548;18.828;2023-06-04T00:32:30;98992.94;;;14.82;43.56
51239;BME280;38154;47.548;18.828;2023-06-04T00:34:56;98986.00;;;14.80;43.85
51239;BME280;38154;47.548;18.828;2023-06-04T00:37:26;98987.81;;;14.75;44.17
51239;BME280;38154;47.548;18.828;2023-06-04T00:39:53;98981.72;;;14.70;44.42
51239;BME280;38154;47.548;18.828;2023-06-04T00:42:18;98984.44;;;14.63;44.40
51239;BME280;38154;47.548;18.828;2023-06-04T00:44:45;98991.47;;;14.63;44.66
51239;BME280;38154;47.548;18.828;2023-06-04T00:47:12;98986.16;;;14.64;44.50
51239;BME280;38154;47.548;18.828;2023-06-04T00:49:38;98985.31;;;14.62;44.52
51239;BME280;38154;47.548;18.828;2023-06-04T00:52:04;98985.41;;;14.53;44.80
51239;BME280;38154;47.548;18.828;2023-06-04T00:54:31;98988.09;;;14.45;44.93
51239;BME280;38154;47.548;18.828;2023-06-04T00:56:59;98985.53;;;14.41;44.90
51239;BME280;38154;47.548;18.828;2023-06-04T00:59:25;98982.97;;;14.36;45.10
51239;BME280;38154;47.548;18.828;2023-06-04T01:02:00;98992.59;;;14.33;45.13
51239;BME280;38154;47.548;18.828;2023-06-04T01:05:00;98993.53;;;14.27;45.27
51239;BME280;38154;47.548;18.828;2023-06-04T01:07:30;98998.84;;;14.22;45.37
51239;BME280;38154;47.548;18.828;2023-06-04T01:09:56;98997.19;;;14.10;45.47
51239;BME280;38154;47.548;18.828;2023-06-04T01:12:22;98995.53;;;14.03;45.03
51239;BME280;38154;47.548;18.828;2023-06-04T01:14:48;98992.94;;;14.00;45.41
51239;BME280;38154;47.548;18.828;2023-06-04T01:22:32;98988.50;;;14.07;45.17
51239;BME280;38154;47.548;18.828;2023-06-04T01:25:05;98980.66;;;14.04;45.06
51239;BME280;38154;47.548;18.828;2023-06-04T01:27:32;98988.44;;;14.13;44.70
51239;BME280;38154;47.548;18.828;2023-06-04T01:30:01;98983.12;;;14.19;44.69
51239;BME280;38154;47.548;18.828;2023-06-04T01:32:27;98989.28;;;14.17;44.76
51239;BME280;38154;47.548;18.828;2023-06-04T01:34:54;98985.00;;;14.09;44.81
51239;BME280;38154;47.548;18.828;2023-06-04T01:37:20;98990.19;;;14.13;44.77
51239;BME280;38154;47.548;18.828;2023-06-04T01:39:45;98990.22;;;14.11;44.79
51239;BME280;38154;47.548;18.828;2023-06-04T01:42:11;98997.28;;;14.04;44.71
51239;BME280;38154;47.548;18.828;2023-06-04T01:44:37;98992.94;;;14.00;44.61
51239;BME280;38154;47.548;18.828;2023-06-04T01:47:03;98999.91;;;14.03;44.82
51239;BME280;38154;47.548;18.828;2023-06-04T01:49:29;98999.91;;;14.03;46.26
51239;BME280;38154;47.548;18.828;2023-06-04T01:51:55;98998.16;;;14.00;47.27
51239;BME280;38154;47.548;18.828;2023-06-04T01:54:21;99006.06;;;13.96;48.36
51239;BME280;38154;47.548;18.828;2023-06-04T01:56:47;99007.88;;;13.90;49.61
51239;BME280;38154;47.548;18.828;2023-06-04T01:59:14;99007.00;;;13.88;49.22
51239;BME280;38154;47.548;18.828;2023-06-04T02:01:41;99003.47;;;13.94;50.65
51239;BME280;38154;47.548;18.828;2023-06-04T02:04:07;99009.66;;;13.84;51.09
51239;BME280;38154;47.548;18.828;2023-06-04T02:06:33;99015.00;;;13.75;52.09
51239;BME280;38154;47.548;18.828;2023-06-04T02:08:59;99014.19;;;13.62;52.38
51239;BME280;38154;47.548;18.828;2023-06-04T02:11:26;99016.88;;;13.54;53.62
51239;BME280;38154;47.548;18.828;2023-06-04T02:13:52;99022.22;;;13.37;55.52
51239;BME280;38154;47.548;18.828;2023-06-04T02:16:18;99017.94;;;13.17;55.85
51239;BME280;38154;47.548;18.828;2023-06-04T02:18:43;99018.00;;;13.05;56.84
51239;BME280;38154;47.548;18.828;2023-06-04T02:21:09;99010.13;;;13.11;56.38
51239;BME280;38154;47.548;18.828;2023-06-04T02:23:35;99015.44;;;12.90;56.36
51239;BME280;38154;47.548;18.828;2023-06-04T02:26:01;99009.44;;;12.65;57.53
51239;BME280;38154;47.548;18.828;2023-06-04T02:28:27;99008.59;;;12.66;52.69
51239;BME280;38154;47.548;18.828;2023-06-04T02:30:53;99007.66;;;12.73;51.24
51239;BME280;38154;47.548;18.828;2023-06-04T02:33:19;99005.81;;;12.96;49.81
51239;BME280;38154;47.548;18.828;2023-06-04T02:35:46;99008.41;;;13.07;49.54
51239;BME280;38154;47.548;18.828;2023-06-04T02:38:12;99012.81;;;13.01;50.70
51239;BME280;38154;47.548;18.828;2023-06-04T02:40:39;99014.66;;;12.77;50.81
51239;BME280;38154;47.548;18.828;2023-06-04T02:43:04;99009.44;;;12.71;52.70
51239;BME280;38154;47.548;18.828;2023-06-04T02:45:30;99011.25;;;12.47;52.90
51239;BME280;38154;47.548;18.828;2023-06-04T02:47:57;99011.28;;;12.32;56.43
51239;BME280;38154;47.548;18.828;2023-06-04T02:50:23;99006.06;;;12.13;58.59
51239;BME280;38154;47.548;18.828;2023-06-04T02:52:48;98998.28;;;11.93;58.67
51239;BME280;38154;47.548;18.828;2023-06-04T02:55:14;98999.09;;;11.77;61.00
51239;BME280;38154;47.548;18.828;2023-06-04T02:57:41;99000.84;;;11.68;61.76
51239;BME280;38154;47.548;18.828;2023-06-04T03:00:09;98993.03;;;11.92;55.43
51239;BME280;38154;47.548;18.828;2023-06-04T03:02:46;99002.59;;;12.17;54.22
51239;BME280;38154;47.548;18.828;2023-06-04T03:05:14;98996.47;;;12.29;52.30
51239;BME280;38154;47.548;18.828;2023-06-04T03:07:41;98999.03;;;12.43;51.97
51239;BME280;38154;47.548;18.828;2023-06-04T03:10:09;99000.78;;;12.47;53.98
51239;BME280;38154;47.548;18.828;2023-06-04T03:12:36;98989.44;;;12.54;51.93
51239;BME280;38154;47.548;18.828;2023-06-04T03:15:02;98990.28;;;12.55;53.36
51239;BME280;38154;47.548;18.828;2023-06-04T03:17:29;99012.97;;;12.50;53.91
51239;BME280;38154;47.548;18.828;2023-06-04T03:19:57;99001.66;;;12.43;54.65
51239;BME280;38154;47.548;18.828;2023-06-04T03:22:23;99004.28;;;12.41;57.72
51239;BME280;38154;47.548;18.828;2023-06-04T03:24:49;99000.81;;;12.36;57.73
51239;BME280;38154;47.548;18.828;2023-06-04T03:27:15;99012.13;;;12.43;57.21
51239;BME280;38154;47.548;18.828;2023-06-04T03:29:41;99018.19;;;12.47;60.26
51239;BME280;38154;47.548;18.828;2023-06-04T03:32:07;99011.19;;;12.67;58.70
51239;BME280;38154;47.548;18.828;2023-06-04T03:34:33;99020.75;;;12.71;56.64
51239;BME280;38154;47.548;18.828;2023-06-04T03:36:59;99017.28;;;12.58;57.91
51239;BME280;38154;47.548;18.828;2023-06-04T03:39:25;99025.19;;;12.51;59.82
51239;BME280;38154;47.548;18.828;2023-06-04T03:41:51;99033.91;;;12.48;59.93
51239;BME280;38154;47.548;18.828;2023-06-04T03:44:18;99026.88;;;12.67;56.41
51239;BME280;38154;47.548;18.828;2023-06-04T03:46:44;99028.47;;;13.04;52.92
51239;BME280;38154;47.548;18.828;2023-06-04T03:49:11;99032.72;;;13.28;54.18
51239;BME280;38154;47.548;18.828;2023-06-04T03:51:37;99037.06;;;13.40;53.78
51239;BME280;38154;47.548;18.828;2023-06-04T03:54:03;99046.69;;;13.39;56.97
51239;BME280;38154;47.548;18.828;2023-06-04T03:56:29;99044.00;;;13.47;58.30
51239;BME280;38154;47.548;18.828;2023-06-04T03:58:56;99038.75;;;13.45;57.97
51239;BME280;38154;47.548;18.828;2023-06-04T04:01:22;99037.00;;;13.49;55.79
51239;BME280;38154;47.548;18.828;2023-06-04T04:03:52;99031.81;;;13.43;56.27
51239;BME280;38154;47.548;18.828;2023-06-04T04:06:19;99044.06;;;13.34;55.97
51239;BME280;38154;47.548;18.828;2023-06-04T04:08:45;99045.84;;;13.32;56.26
51239;BME280;38154;47.548;18.828;2023-06-04T04:11:15;99042.31;;;13.30;57.92
51239;BME280;38154;47.548;18.828;2023-06-04T04:13:42;99044.00;;;13.45;58.16
51239;BME280;38154;47.548;18.828;2023-06-04T04:16:07;99053.50;;;13.66;57.61
51239;BME280;38154;47.548;18.828;2023-06-04T04:18:35;99057.75;;;13.83;57.32
51239;BME280;38154;47.548;18.828;2023-06-04T04:21:02;99058.47;;;13.99;58.08
51239;BME280;38154;47.548;18.828;2023-06-04T04:23:29;99050.44;;;14.20;59.26
51239;BME280;38154;47.548;18.828;2023-06-04T04:25:55;99060.91;;;14.23;56.60
51239;BME280;38154;47.548;18.828;2023-06-04T04:28:25;99059.12;;;14.25;58.62
51239;BME280;38154;47.548;18.828;2023-06-04T04:30:57;99054.75;;;14.26;60.02
51239;BME280;38154;47.548;18.828;2023-06-04T04:33:23;99055.53;;;14.36;58.95
51239;BME280;38154;47.548;18.828;2023-06-04T04:35:52;99056.37;;;14.39;57.45
51239;BME280;38154;47.548;18.828;2023-06-04T04:38:21;99056.34;;;14.42;59.05
51239;BME280;38154;47.548;18.828;2023-06-04T04:40:49;99061.44;;;14.59;58.18
51239;BME280;38154;47.548;18.828;2023-06-04T04:43:28;99063.03;;;14.77;57.27
51239;BME280;38154;47.548;18.828;2023-06-04T04:45:54;99060.12;;;15.00;55.10
51239;BME280;38154;47.548;18.828;2023-06-04T04:48:20;99065.94;;;15.26;53.67
51239;BME280;38154;47.548;18.828;2023-06-04T04:50:46;99069.09;;;15.51;47.55
51239;BME280;38154;47.548;18.828;2023-06-04T04:53:12;99068.78;;;15.77;46.48
51239;BME280;38154;47.548;18.828;2023-06-04T04:55:38;99073.03;;;15.84;46.97
51239;BME280;38154;47.548;18.828;2023-06-04T04:58:04;99072.25;;;15.79;54.39
51239;BME280;38154;47.548;18.828;2023-06-04T05:00:30;99073.16;;;15.76;56.68
51239;BME280;38154;47.548;18.828;2023-06-04T05:02:56;99075.00;;;15.67;57.47
51239;BME280;38154;47.548;18.828;2023-06-04T05:05:21;99080.53;;;15.47;56.92
51239;BME280;38154;47.548;18.828;2023-06-04T05:07:48;99071.97;;;15.35;59.42
51239;BME280;38154;47.548;18.828;2023-06-04T05:10:14;99077.22;;;15.35;59.63
51239;BME280;38154;47.548;18.828;2023-06-04T05:12:50;99084.00;;;15.52;55.25
51239;BME280;38154;47.548;18.828;2023-06-04T05:15:16;99083.91;;;15.56;56.60
51239;BME280;38154;47.548;18.828;2023-06-04T05:17:43;99079.37;;;15.69;50.21
51239;BME280;38154;47.548;18.828;2023-06-04T05:20:09;99080.16;;;15.74;48.17
51239;BME280;38154;47.548;18.828;2023-06-04T05:22:37;99083.72;;;15.72;47.01
51239;BME280;38154;47.548;18.828;2023-06-04T05:25:04;99089.69;;;15.83;44.66
51239;BME280;38154;47.548;18.828;2023-06-04T05:27:31;99094.87;;;15.89;43.66
51239;BME280;38154;47.548;18.828;2023-06-04T05:29:58;99091.25;;;15.97;44.12
51239;BME280;38154;47.548;18.828;2023-06-04T05:32:24;99086.91;;;15.95;44.21
51239;BME280;38154;47.548;18.828;2023-06-04T05:34:54;99079.97;;;15.90;43.58
51239;BME280;38154;47.548;18.828;2023-06-04T05:37:27;99091.12;;;16.06;43.30
51239;BME280;38154;47.548;18.828;2023-06-04T05:39:55;99097.62;;;16.38;42.45
51239;BME280;38154;47.548;18.828;2023-06-04T05:42:22;99097.09;;;16.65;41.24
51239;BME280;38154;47.548;18.828;2023-06-04T05:44:48;99106.97;;;17.02;41.29
51239;BME280;38154;47.548;18.828;2023-06-04T05:47:15;99096.63;;;17.37;41.63
51239;BME280;38154;47.548;18.828;2023-06-04T05:49:42;99096.25;;;17.54;40.00
51239;BME280;38154;47.548;18.828;2023-06-04T05:52:08;99095.78;;;17.75;40.09
51239;BME280;38154;47.548;18.828;2023-06-04T05:54:34;99094.34;;;18.01;39.43
51239;BME280;38154;47.548;18.828;2023-06-04T05:57:00;99092.84;;;17.89;39.84
51239;BME280;38154;47.548;18.828;2023-06-04T05:59:26;99089.78;;;17.69;40.08
51239;BME280;38154;47.548;18.828;2023-06-04T06:01:52;99090.28;;;17.46;40.81
51239;BME280;38154;47.548;18.828;2023-06-04T06:04:18;99097.31;;;17.47;40.99
51239;BME280;38154;47.548;18.828;2023-06-04T06:06:44;99093.87;;;17.82;40.56
51239;BME280;38154;47.548;18.828;2023-06-04T06:09:14;99105.44;;;18.15;39.99
51239;BME280;38154;47.548;18.828;2023-06-04T06:11:41;99108.91;;;19.19;39.62
51239;BME280;38154;47.548;18.828;2023-06-04T06:14:07;99112.78;;;19.97;36.39
51239;BME280;38154;47.548;18.828;2023-06-04T06:16:32;99115.53;;;21.01;36.25
51239;BME280;38154;47.548;18.828;2023-06-04T06:19:00;99119.16;;;20.98;34.42
51239;BME280;38154;47.548;18.828;2023-06-04T06:21:26;99123.16;;;20.58;33.86
51239;BME280;38154;47.548;18.828;2023-06-04T06:23:53;99128.12;;;21.90;32.69
51239;BME280;38154;47.548;18.828;2023-06-04T06:26:19;99127.31;;;23.37;31.19
51239;BME280;38154;47.548;18.828;2023-06-04T06:28:45;99135.31;;;23.75;31.84
51239;BME280;38154;47.548;18.828;2023-06-04T06:31:11;99135.59;;;24.43;30.41
51239;BME280;38154;47.548;18.828;2023-06-04T06:33:36;99128.34;;;23.91;30.10
51239;BME280;38154;47.548;18.828;2023-06-04T06:36:12;99137.50;;;22.86;31.97
51239;BME280;38154;47.548;18.828;2023-06-04T06:38:39;99135.66;;;22.23;33.42
51239;BME280;38154;47.548;18.828;2023-06-04T06:41:05;99149.44;;;22.55;33.61
51239;BME280;38154;47.548;18.828;2023-06-04T06:43:31;99154.72;;;22.77;33.84
51239;BME280;38154;47.548;18.828;2023-06-04T06:45:57;99150.62;;;22.26;33.23
51239;BME280;38154;47.548;18.828;2023-06-04T06:48:23;99153.59;;;21.72;34.57
51239;BME280;38154;47.548;18.828;2023-06-04T06:50:49;99152.63;;;21.51;36.36
51239;BME280;38154;47.548;18.828;2023-06-04T06:53:15;99157.44;;;21.15;36.79
51239;BME280;38154;47.548;18.828;2023-06-04T06:55:41;99168.59;;;20.99;37.18
51239;BME280;38154;47.548;18.828;2023-06-04T06:58:06;99163.09;;;21.05;36.08
51239;BME280;38154;47.548;18.828;2023-06-04T07:00:32;99160.84;;;21.18;36.66
51239;BME280;38154;47.548;18.828;2023-06-04T07:02:58;99160.91;;;21.89;34.39
51239;BME280;38154;47.548;18.828;2023-06-04T07:05:24;99160.91;;;21.89;35.03
51239;BME280;38154;47.548;18.828;2023-06-04T07:07:50;99158.38;;;21.86;35.96
51239;BME280;38154;47.548;18.828;2023-06-04T07:10:17;99158.50;;;21.59;37.04
51239;BME280;38154;47.548;18.828;2023-06-04T07:12:43;99165.13;;;21.71;37.43
51239;BME280;38154;47.548;18.828;2023-06-04T07:15:09;99167.09;;;21.90;36.12
51239;BME280;38154;47.548;18.828;2023-06-04T07:17:36;99171.09;;;22.88;36.34
51239;BME280;38154;47.548;18.828;2023-06-04T07:20:02;99168.88;;;24.53;30.72
51239;BME280;38154;47.548;18.828;2023-06-04T07:22:32;99176.19;;;26.20;27.96
51239;BME280;38154;47.548;18.828;2023-06-04T07:24:58;99183.50;;;27.97;25.81
51239;BME280;38154;47.548;18.828;2023-06-04T07:27:24;99188.59;;;29.36;23.89
51239;BME280;38154;47.548;18.828;2023-06-04T07:29:50;99186.91;;;28.13;25.38
51239;BME280;38154;47.548;18.828;2023-06-04T07:32:16;99181.00;;;26.13;28.02
51239;BME280;38154;47.548;18.828;2023-06-04T07:34:42;99185.97;;;24.86;30.09
51239;BME280;38154;47.548;18.828;2023-06-04T07:37:08;99173.41;;;23.77;31.92
51239;BME280;38154;47.548;18.828;2023-06-04T07:39:38;99167.94;;;23.21;32.22
51239;BME280;38154;47.548;18.828;2023-06-04T07:42:05;99168.94;;;22.33;33.89
51239;BME280;38154;47.548;18.828;2023-06-04T07:44:33;99175.28;;;21.60;34.84
51239;BME280;38154;47.548;18.828;2023-06-04T07:46:59;99174.00;;;21.21;35.13
51239;BME280;38154;47.548;18.828;2023-06-04T07:49:25;99172.19;;;20.98;35.39
51239;BME280;38154;47.548;18.828;2023-06-04T07:51:51;99168.88;;;20.91;35.76
51239;BME280;38154;47.548;18.828;2023-06-04T07:54:16;99170.34;;;21.00;36.39
51239;BME280;38154;47.548;18.828;2023-06-04T07:56:43;99172.66;;;21.09;36.51
51239;BME280;38154;47.548;18.828;2023-06-04T07:59:09;99177.69;;;20.92;35.99
51239;BME280;38154;47.548;18.828;2023-06-04T08:01:35;99182.34;;;21.10;36.47
51239;BME280;38154;47.548;18.828;2023-06-04T08:04:01;99189.59;;;21.30;35.86
51239;BME280;38154;47.548;18.828;2023-06-04T08:06:27;99189.47;;;20.83;35.32
51239;BME280;38154;47.548;18.828;2023-06-04T08:08:53;99191.66;;;20.70;36.62
51239;BME280;38154;47.548;18.828;2023-06-04T08:11:19;99185.44;;;20.45;34.68
51239;BME280;38154;47.548;18.828;2023-06-04T08:13:45;99193.03;;;20.27;35.88
51239;BME280;38154;47.548;18.828;2023-06-04T08:16:10;99187.81;;;19.96;36.32
51239;BME280;38154;47.548;18.828;2023-06-04T08:18:40;99184.34;;;19.94;37.30
51239;BME280;38154;47.548;18.828;2023-06-04T08:21:10;99186.59;;;20.08;37.03
51239;BME280;38154;47.548;18.828;2023-06-04T08:23:42;99188.34;;;20.35;37.45
51239;BME280;38154;47.548;18.828;2023-06-04T08:26:08;99191.72;;;20.12;37.40
51239;BME280;38154;47.548;18.828;2023-06-04T08:28:34;99195.25;;;20.13;37.56
51239;BME280;38154;47.548;18.828;2023-06-04T08:31:00;99195.56;;;20.02;37.17
51239;BME280;38154;47.548;18.828;2023-06-04T08:33:26;99198.56;;;19.91;38.50
51239;BME280;38154;47.548;18.828;2023-06-04T08:35:51;99191.09;;;19.76;38.78
51239;BME280;38154;47.548;18.828;2023-06-04T08:38:17;99191.44;;;19.93;39.72
51239;BME280;38154;47.548;18.828;2023-06-04T08:40:43;99195.94;;;19.90;40.54
51239;BME280;38154;47.548;18.828;2023-06-04T08:43:10;99200.00;;;20.01;39.92
51239;BME280;38154;47.548;18.828;2023-06-04T08:45:38;99194.28;;;19.86;39.89
51239;BME280;38154;47.548;18.828;2023-06-04T08:48:09;99196.38;;;19.76;40.14
51239;BME280;38154;47.548;18.828;2023-06-04T08:50:39;99194.28;;;19.86;39.90
51239;BME280;38154;47.548;18.828;2023-06-04T08:53:09;99191.63;;;20.15;40.25
51239;BME280;38154;47.548;18.828;2023-06-04T08:55:37;99184.19;;;20.55;39.33
51239;BME280;38154;47.548;18.828;2023-06-04T08:58:05;99192.97;;;20.57;37.36
51239;BME280;38154;47.548;18.828;2023-06-04T09:00:33;99192.13;;;20.83;39.02
51239;BME280;38154;47.548;18.828;2023-06-04T09:03:02;99196.91;;;21.24;39.78
51239;BME280;38154;47.548;18.828;2023-06-04T09:05:29;99200.69;;;21.42;38.52
51239;BME280;38154;47.548;18.828;2023-06-04T09:08:00;99192.87;;;21.86;36.26
51239;BME280;38154;47.548;18.828;2023-06-04T09:10:29;99200.44;;;21.49;37.00
51239;BME280;38154;47.548;18.828;2023-06-04T09:12:57;99203.78;;;21.78;36.64
51239;BME280;38154;47.548;18.828;2023-06-04T09:15:27;99201.44;;;21.94;36.68
51239;BME280;38154;47.548;18.828;2023-06-04T09:17:52;99199.28;;;22.04;37.81
51239;BME280;38154;47.548;18.828;2023-06-04T09:20:20;99194.78;;;22.06;38.48
51239;BME280;38154;47.548;18.828;2023-06-04T09:22:46;99201.88;;;22.05;37.72
51239;BME280;38154;47.548;18.828;2023-06-04T09:25:22;99202.22;;;22.42;38.67
51239;BME280;38154;47.548;18.828;2023-06-04T09:27:50;99202.50;;;22.78;38.13
51239;BME280;38154;47.548;18.828;2023-06-04T09:30:17;99202.44;;;23.23;37.54
51239;BME280;38154;47.548;18.828;2023-06-04T09:32:43;99202.91;;;23.12;37.08
51239;BME280;38154;47.548;18.828;2023-06-04T09:35:13;99202.19;;;23.08;36.92
51239;BME280;38154;47.548;18.828;2023-06-04T09:37:42;99198.53;;;22.89;36.67
51239;BME280;38154;47.548;18.828;2023-06-04T09:40:09;99203.78;;;22.90;36.22
51239;BME280;38154;47.548;18.828;2023-06-04T09:42:43;99196.97;;;23.26;35.13
51239;BME280;38154;47.548;18.828;2023-06-04T09:45:09;99188.56;;;23.16;36.37
51239;BME280;38154;47.548;18.828;2023-06-04T09:47:42;99186.72;;;23.77;36.51
51239;BME280;38154;47.548;18.828;2023-06-04T09:50:10;99193.69;;;23.79;35.63
51239;BME280;38154;47.548;18.828;2023-06-04T09:52:37;99193.09;;;23.73;35.91
51239;BME280;38154;47.548;18.828;2023-06-04T09:55:18;99198.09;;;23.80;36.97
51239;BME280;38154;47.548;18.828;2023-06-04T09:57:49;99200.94;;;24.15;36.94
51239;BME280;38154;47.548;18.828;2023-06-04T10:00:20;99200.13;;;23.94;35.57
51239;BME280;38154;47.548;18.828;2023-06-04T10:02:47;99199.16;;;24.33;34.89
51239;BME280;38154;47.548;18.828;2023-06-04T10:05:14;99207.47;;;26.65;30.96
51239;BME280;38154;47.548;18.828;2023-06-04T10:07:44;99212.47;;;27.32;29.64
51239;BME280;38154;47.548;18.828;2023-06-04T10:10:18;99212.88;;;28.81;28.27
51239;BME280;38154;47.548;18.828;2023-06-04T10:12:50;99224.50;;;28.95;26.82
51239;BME280;38154;47.548;18.828;2023-06-04T10:15:18;99221.59;;;29.25;26.70
51239;BME280;38154;47.548;18.828;2023-06-04T10:17:47;99229.44;;;30.05;25.44
51239;BME280;38154;47.548;18.828;2023-06-04T10:20:14;99227.97;;;28.70;27.18
51239;BME280;38154;47.548;18.828;2023-06-04T10:22:40;99220.50;;;27.02;27.95
51239;BME280;38154;47.548;18.828;2023-06-04T10:25:08;99213.69;;;26.18;29.86
51239;BME280;38154;47.548;18.828;2023-06-04T10:27:36;99214.72;;;25.82;30.35
51239;BME280;38154;47.548;18.828;2023-06-04T10:30:04;99221.94;;;25.64;31.77
51239;BME280;38154;47.548;18.828;2023-06-04T10:32:30;99215.59;;;24.62;31.96
51239;BME280;38154;47.548;18.828;2023-06-04T10:34:57;99220.84;;;24.44;34.10
51239;BME280;38154;47.548;18.828;2023-06-04T10:37:25;99215.87;;;23.40;35.58
51239;BME280;38154;47.548;18.828;2023-06-04T10:39:55;99214.19;;;23.58;35.77
51239;BME280;38154;47.548;18.828;2023-06-04T10:42:22;99216.78;;;23.60;34.11
51239;BME280;38154;47.548;18.828;2023-06-04T10:44:50;99219.00;;;23.29;33.84
51239;BME280;38154;47.548;18.828;2023-06-04T10:47:23;99217.06;;;23.12;35.45
51239;BME280;38154;47.548;18.828;2023-06-04T10:49:51;99218.03;;;22.67;36.71
51239;BME280;38154;47.548;18.828;2023-06-04T10:52:17;99219.09;;;22.63;35.13
51239;BME280;38154;47.548;18.828;2023-06-04T10:54:45;99219.00;;;22.44;36.60
51239;BME280;38154;47.548;18.828;2023-06-04T10:57:18;99217.78;;;22.73;37.25
51239;BME280;38154;47.548;18.828;2023-06-04T10:59:54;99208.97;;;22.51;36.93
51239;BME280;38154;47.548;18.828;2023-06-04T11:02:20;99206.94;;;22.57;37.62
51239;BME280;38154;47.548;18.828;2023-06-04T11:04:46;99211.62;;;22.27;38.40
51239;BME280;38154;47.548;18.828;2023-06-04T11:07:12;99212.06;;;22.40;37.58
51239;BME280;38154;47.548;18.828;2023-06-04T11:09:49;99215.59;;;22.63;37.18
51239;BME280;38154;47.548;18.828;2023-06-04T11:12:15;99214.16;;;22.76;36.89
51239;BME280;38154;47.548;18.828;2023-06-04T11:14:53;99216.28;;;22.88;36.24
51239;BME280;38154;47.548;18.828;2023-06-04T11:17:19;99214.69;;;22.84;35.99
51239;BME280;38154;47.548;18.828;2023-06-04T11:19:45;99206.53;;;22.67;38.10
51239;BME280;38154;47.548;18.828;2023-06-04T11:22:11;99208.78;;;22.33;37.04
51239;BME280;38154;47.548;18.828;2023-06-04T11:24:40;99209.53;;;22.13;38.27
51239;BME280;38154;47.548;18.828;2023-06-04T11:27:06;99203.72;;;22.03;37.43
51239;BME280;38154;47.548;18.828;2023-06-04T11:29:33;99207.97;;;21.85;36.71
51239;BME280;38154;47.548;18.828;2023-06-04T11:31:58;99203.84;;;21.77;37.04
51239;BME280;38154;47.548;18.828;2023-06-04T11:34:29;99207.75;;;21.66;37.23
51239;BME280;38154;47.548;18.828;2023-06-04T11:36:55;99212.91;;;21.47;39.37
51239;BME280;38154;47.548;18.828;2023-06-04T11:39:22;99209.22;;;21.25;40.01
51239;BME280;38154;47.548;18.828;2023-06-04T11:41:51;99205.22;;;21.13;40.49
51239;BME280;38154;47.548;18.828;2023-06-04T11:44:19;99213.38;;;21.08;39.50
51239;BME280;38154;47.548;18.828;2023-06-04T11:46:45;99209.88;;;21.06;40.85
51239;BME280;38154;47.548;18.828;2023-06-04T11:49:18;99205.47;;;21.32;43.86
51239;BME280;38154;47.548;18.828;2023-06-04T11:51:51;99211.91;;;21.50;45.49
51239;BME280;38154;47.548;18.828;2023-06-04T11:54:21;99215.37;;;21.27;47.46
51239;BME280;38154;47.548;18.828;2023-06-04T11:56:51;99216.78;;;21.12;48.64
51239;BME280;38154;47.548;18.828;2023-06-04T11:59:18;99222.06;;;21.12;49.33
51239;BME280;38154;47.548;18.828;2023-06-04T12:01:45;99217.69;;;20.84;49.87
51239;BME280;38154;47.548;18.828;2023-06-04T12:04:16;99211.66;;;20.81;50.65
51239;BME280;38154;47.548;18.828;2023-06-04T12:06:55;99217.47;;;20.92;49.13
51239;BME280;38154;47.548;18.828;2023-06-04T12:09:28;99213.53;;;21.04;52.05
51239;BME280;38154;47.548;18.828;2023-06-04T12:12:09;99215.63;;;20.94;49.57
51239;BME280;38154;47.548;18.828;2023-06-04T12:14:35;99214.91;;;20.89;51.02
51239;BME280;38154;47.548;18.828;2023-06-04T12:17:06;99225.63;;;21.11;49.62
51239;BME280;38154;47.548;18.828;2023-06-04T12:19:32;99221.72;;;20.96;52.48
51239;BME280;38154;47.548;18.828;2023-06-04T12:22:00;99215.13;;;21.08;48.68
51239;BME280;38154;47.548;18.828;2023-06-04T12:24:27;99214.66;;;20.97;51.93
51239;BME280;38154;47.548;18.828;2023-06-04T12:27:10;99210.00;;;21.03;52.33
51239;BME280;38154;47.548;18.828;2023-06-04T12:29:36;99208.59;;;21.18;47.51
51239;BME280;38154;47.548;18.828;2023-06-04T12:32:07;99208.00;;;21.35;48.99
51239;BME280;38154;47.548;18.828;2023-06-04T12:34:37;99202.88;;;21.30;50.77
51239;BME280;38154;47.548;18.828;2023-06-04T12:37:03;99202.97;;;21.27;50.71
51239;BME280;38154;47.548;18.828;2023-06-04T12:39:35;99204.41;;;21.36;49.26
51239;BME280;38154;47.548;18.828;2023-06-04T12:42:06;99196.75;;;21.77;46.02
51239;BME280;38154;47.548;18.828;2023-06-04T12:44:40;99196.16;;;21.93;45.42
51239;BME280;38154;47.548;18.828;2023-06-04T12:47:07;99200.16;;;21.81;48.72
51239;BME280;38154;47.548;18.828;2023-06-04T12:49:33;99190.91;;;21.91;51.43
51239;BME280;38154;47.548;18.828;2023-06-04T12:52:00;99192.78;;;21.89;50.71
51239;BME280;38154;47.548;18.828;2023-06-04T12:54:25;99190.28;;;21.84;51.79
51239;BME280;38154;47.548;18.828;2023-06-04T12:56:53;99192.91;;;22.08;50.61